Main page
METAR-TAF:

METAR-TAF

Airports :

Marianna Municipal Airport

Marianna, Florida, United States

latitude: 30-50-12N, longitude: 085-11-01W, elevation: 112 ft

Current weather observation

The report was made 15 minutes ago, at 06:53 UTC
Wind 7 mph from the East/Southeast
Temperature 70°F
Humidity 64%
Pressure 30.11 in. Hg
Visibility: 10 miles
Clear sky

METAR: KMAI 180653Z AUTO 12006KT 10SM CLR 21/14 A3011 RMK AO2 SLP195 T02110139

Time: 02:08 (07:08 UTC)


TAF: missing

Weather observations and forecasts of more than 4000 airports (METAR and TAF reports).

The available stations are represented by yellow and red dots on the map.

Hover mouse over dot to see the name of the station.

Then click to see weather observations and forecasts.

To change the map : click on the green buttons with a black cross to zoom in, on the green button with a dash to zoom out, or on the green arrows for adjacent maps.


METAR-TAF: